createdAt,value
2019-05-01T00:00:16.060Z,58.13
2019-05-01T00:02:55.673Z,57.82
2019-05-01T00:05:25.084Z,57.50
2019-05-01T00:07:49.635Z,57.20
2019-05-01T00:10:14.730Z,57.70
2019-05-01T00:12:39.459Z,58.48
2019-05-01T00:15:04.884Z,59.15
2019-05-01T00:17:30.003Z,57.14
2019-05-01T00:19:54.557Z,56.64
2019-05-01T00:22:19.024Z,55.78
2019-05-01T00:24:43.577Z,56.36
2019-05-01T00:27:08.032Z,56.28
2019-05-01T00:29:32.511Z,56.30
2019-05-01T00:31:57.044Z,56.99
2019-05-01T00:34:21.588Z,55.56
2019-05-01T00:36:46.088Z,56.25
2019-05-01T00:39:12.349Z,56.43
2019-05-01T00:41:36.967Z,55.74
2019-05-01T00:44:01.456Z,57.08
2019-05-01T00:46:26.010Z,58.88
2019-05-01T00:48:50.491Z,58.13
2019-05-01T00:51:14.985Z,60.23
2019-05-01T00:53:39.533Z,59.77
2019-05-01T00:56:05.716Z,61.87
2019-05-01T00:58:41.115Z,60.70
2019-05-01T01:01:07.299Z,58.36
2019-05-01T01:03:31.832Z,57.47
2019-05-01T01:05:56.558Z,58.71
2019-05-01T01:08:21.031Z,58.95
2019-05-01T01:10:45.592Z,60.23
2019-05-01T01:13:10.076Z,60.96
2019-05-01T01:15:34.625Z,61.27
2019-05-01T01:17:59.182Z,64.79
2019-05-01T01:20:23.742Z,64.77
2019-05-01T01:22:48.375Z,66.76
2019-05-01T01:25:12.989Z,65.96
2019-05-01T01:27:37.809Z,65.35
2019-05-01T01:30:02.422Z,65.67
2019-05-01T01:32:27.074Z,65.93
2019-05-01T01:34:51.614Z,65.95
2019-05-01T01:37:16.103Z,66.13
2019-05-01T01:39:40.726Z,63.56
2019-05-01T01:42:05.906Z,65.78
2019-05-01T01:44:41.324Z,66.03
2019-05-01T01:47:06.055Z,67.12
2019-05-01T01:49:30.705Z,66.95
2019-05-01T01:51:55.702Z,67.38
2019-05-01T01:54:20.428Z,67.32
2019-05-01T01:56:45.529Z,68.45
2019-05-01T01:59:10.445Z,69.23
2019-05-01T02:01:39.443Z,70.44
2019-05-01T02:04:17.984Z,70.00
2019-05-01T02:06:42.527Z,71.16
2019-05-01T02:09:08.433Z,71.99
2019-05-01T02:11:33.055Z,72.02
2019-05-01T02:13:58.378Z,72.12
2019-05-01T02:16:22.949Z,71.12
2019-05-01T02:18:47.562Z,70.16
2019-05-01T02:21:12.123Z,68.21
2019-05-01T02:23:36.674Z,69.11
2019-05-01T02:26:01.491Z,67.43
2019-05-01T02:28:36.729Z,68.56
2019-05-01T02:31:28.498Z,67.29
2019-05-01T02:33:47.453Z,67.66
2019-05-01T02:36:14.408Z,69.24
2019-05-01T02:38:41.224Z,69.29
2019-05-01T02:41:09.013Z,68.68
2019-05-01T02:43:36.529Z,67.56
2019-05-01T02:46:05.141Z,66.91
2019-05-01T02:48:32.834Z,67.20
2019-05-01T02:51:00.350Z,67.44
2019-05-01T02:53:26.070Z,68.76
2019-05-01T02:56:10.086Z,66.69
2019-05-01T02:58:34.811Z,69.33
2019-05-01T03:00:59.424Z,68.85
2019-05-01T03:03:24.044Z,68.89
2019-05-01T03:05:48.763Z,69.59
2019-05-01T03:08:13.378Z,67.83
2019-05-01T03:10:38.031Z,67.17
2019-05-01T03:13:03.161Z,68.47
2019-05-01T03:15:30.595Z,69.99
2019-05-01T03:17:57.058Z,70.49
2019-05-01T03:20:41.878Z,70.65
2019-05-01T03:23:23.548Z,72.30
2019-05-01T03:25:48.679Z,72.37
2019-05-01T03:28:14.334Z,71.76
2019-05-01T03:30:40.057Z,73.32
2019-05-01T03:33:06.081Z,72.35
2019-05-01T03:35:30.767Z,71.97
2019-05-01T03:37:55.486Z,70.75
2019-05-01T03:40:20.103Z,71.75
2019-05-01T03:42:44.824Z,72.19
2019-05-01T03:45:09.435Z,73.05
2019-05-01T03:47:35.034Z,73.75
2019-05-01T03:50:00.042Z,73.01
2019-05-01T03:52:24.622Z,72.66
2019-05-01T03:54:49.332Z,73.40
2019-05-01T03:57:14.064Z,74.58
2019-05-01T03:59:38.686Z,75.60
2019-05-01T04:02:05.252Z,76.20
2019-05-01T04:04:32.143Z,75.31
2019-05-01T04:06:56.958Z,74.83
2019-05-01T04:09:21.674Z,74.19
2019-05-01T04:11:46.385Z,75.16
2019-05-01T04:14:10.946Z,73.20
2019-05-01T04:16:36.023Z,73.71
2019-05-01T04:19:00.928Z,72.75
2019-05-01T04:21:28.052Z,72.27
2019-05-01T04:23:53.380Z,73.91
2019-05-01T04:26:18.099Z,72.69
2019-05-01T04:28:50.784Z,73.27
2019-05-01T04:31:35.335Z,75.08
2019-05-01T04:34:01.881Z,75.69
2019-05-01T04:36:37.500Z,75.20
2019-05-01T04:39:02.046Z,74.79
2019-05-01T04:41:27.352Z,74.55
2019-05-01T04:43:52.076Z,72.93
2019-05-01T04:46:16.624Z,73.47
2019-05-01T04:48:41.827Z,72.72
2019-05-01T04:51:06.528Z,73.64
2019-05-01T04:53:31.447Z,73.81
2019-05-01T04:55:56.351Z,73.95
2019-05-01T04:58:20.994Z,72.70
2019-05-01T05:00:45.558Z,73.33
2019-05-01T05:03:11.907Z,73.46
2019-05-01T05:05:36.633Z,72.81
2019-05-01T05:08:02.048Z,73.28
2019-05-01T05:10:27.078Z,74.90
2019-05-01T05:12:53.740Z,72.40
2019-05-01T05:15:26.234Z,69.38
2019-05-01T05:17:51.054Z,72.50
2019-05-01T05:20:15.601Z,73.20
2019-05-01T05:22:40.287Z,74.10
2019-05-01T05:25:06.187Z,72.89
2019-05-01T05:27:30.941Z,71.95
2019-05-01T05:29:57.527Z,72.37
2019-05-01T05:32:23.335Z,73.38
2019-05-01T05:34:48.861Z,73.63
2019-05-01T05:37:17.938Z,74.72
2019-05-01T05:39:47.431Z,75.38
2019-05-01T05:42:12.858Z,74.24
2019-05-01T05:44:37.752Z,75.01
2019-05-01T05:47:02.374Z,75.29
2019-05-01T05:49:27.199Z,74.18
2019-05-01T05:51:55.547Z,73.45
2019-05-01T05:54:39.784Z,74.39
2019-05-01T05:57:13.154Z,73.24
2019-05-01T05:59:41.600Z,72.33
2019-05-01T06:02:27.017Z,74.00
2019-05-01T06:05:02.110Z,73.79
2019-05-01T06:07:37.404Z,73.79
2019-05-01T06:10:10.718Z,73.44
2019-05-01T06:12:41.733Z,71.78
2019-05-01T06:15:15.118Z,70.77
2019-05-01T06:17:50.753Z,70.89
2019-05-01T06:20:27.615Z,69.30
2019-05-01T06:23:05.126Z,71.26
2019-05-01T06:25:31.979Z,73.68
2019-05-01T06:27:57.008Z,73.99
2019-05-01T06:30:21.562Z,72.35
2019-05-01T06:32:46.975Z,72.07
2019-05-01T06:35:11.697Z,72.32
2019-05-01T06:38:00.560Z,72.30
2019-05-01T06:40:25.062Z,73.19
2019-05-01T06:42:50.110Z,71.67
2019-05-01T06:45:16.986Z,71.52
2019-05-01T06:47:44.282Z,73.18
2019-05-01T06:50:13.859Z,72.71
2019-05-01T06:52:39.840Z,72.91
2019-05-01T06:55:04.899Z,70.94
2019-05-01T06:57:30.821Z,70.43
2019-05-01T06:59:57.022Z,70.48
2019-05-01T07:02:21.824Z,70.29
2019-05-01T07:04:49.626Z,71.06
2019-05-01T07:07:25.065Z,71.15
2019-05-01T07:09:49.206Z,71.84
2019-05-01T07:12:12.392Z,72.19
2019-05-01T07:14:37.532Z,73.11
2019-05-01T07:17:02.149Z,71.69
2019-05-01T07:19:41.958Z,72.36
2019-05-01T07:22:07.475Z,72.90
2019-05-01T07:24:32.092Z,72.67
2019-05-01T07:26:56.789Z,71.09
2019-05-01T07:29:22.956Z,70.83
2019-05-01T07:31:47.679Z,70.93
2019-05-01T07:34:16.734Z,71.39
2019-05-01T07:36:38.850Z,70.50
2019-05-01T07:39:05.182Z,70.37
2019-05-01T07:41:34.026Z,71.04
2019-05-01T07:44:07.315Z,71.36
2019-05-01T07:46:48.894Z,71.39
2019-05-01T07:49:13.112Z,71.37
2019-05-01T07:51:42.428Z,70.70
2019-05-01T07:54:08.974Z,70.30
2019-05-01T07:56:33.402Z,68.38
2019-05-01T07:58:58.362Z,68.18
2019-05-01T08:01:33.664Z,70.46
2019-05-01T08:03:58.188Z,69.02
2019-05-01T08:06:22.947Z,69.66
2019-05-01T08:08:47.626Z,70.36
2019-05-01T08:11:12.095Z,68.67
2019-05-01T08:13:36.595Z,67.96
2019-05-01T08:16:02.118Z,68.40
2019-05-01T08:18:29.302Z,67.66
2019-05-01T08:21:11.953Z,69.80
2019-05-01T08:23:36.596Z,68.95
2019-05-01T08:26:03.858Z,68.14
2019-05-01T08:28:31.941Z,69.00
2019-05-01T08:31:14.854Z,69.48
2019-05-01T08:33:44.916Z,68.76
2019-05-01T08:36:11.675Z,69.08
2019-05-01T08:38:36.864Z,69.19
2019-05-01T08:41:01.340Z,69.62
2019-05-01T08:43:25.787Z,69.46
2019-05-01T08:45:55.042Z,68.81
2019-05-01T08:48:30.737Z,68.15
2019-05-01T08:50:54.492Z,67.89
2019-05-01T08:53:22.158Z,68.81
2019-05-01T08:55:47.081Z,67.97
2019-05-01T08:58:14.139Z,67.50
2019-05-01T09:00:41.206Z,67.44
2019-05-01T09:03:08.513Z,66.58
2019-05-01T09:05:33.915Z,67.53
2019-05-01T09:07:57.774Z,66.71
2019-05-01T09:10:23.236Z,66.74
2019-05-01T09:12:48.782Z,67.92
2019-05-01T09:15:14.751Z,66.69
2019-05-01T09:17:39.318Z,67.65
2019-05-01T09:20:04.777Z,66.68
2019-05-01T09:22:29.328Z,66.28
2019-05-01T09:24:53.940Z,64.96
2019-05-01T09:27:32.079Z,64.46
2019-05-01T09:30:04.339Z,63.03
2019-05-01T09:32:27.555Z,64.91
2019-05-01T09:34:52.142Z,64.27
2019-05-01T09:37:16.761Z,64.06
2019-05-01T09:39:41.572Z,63.43
2019-05-01T09:42:06.873Z,63.66
2019-05-01T09:44:31.474Z,62.80
2019-05-01T09:46:56.096Z,63.47
2019-05-01T09:49:21.207Z,66.03
2019-05-01T09:52:03.602Z,64.04
2019-05-01T09:54:32.642Z,64.14
2019-05-01T09:56:57.196Z,63.23
2019-05-01T09:59:21.680Z,64.72
2019-05-01T10:01:46.218Z,64.19
2019-05-01T10:04:10.687Z,63.99
2019-05-01T10:06:35.346Z,63.69
2019-05-01T10:08:59.889Z,63.81
2019-05-01T10:11:24.553Z,63.61
2019-05-01T10:13:49.111Z,63.20
2019-05-01T10:16:13.646Z,63.01
2019-05-01T10:18:38.104Z,62.66
2019-05-01T10:21:02.573Z,62.55
2019-05-01T10:23:27.133Z,62.96
2019-05-01T10:25:56.297Z,61.58
2019-05-01T10:28:37.074Z,61.54
2019-05-01T10:31:07.057Z,59.80
2019-05-01T10:33:32.710Z,60.93
2019-05-01T10:36:07.991Z,60.03
2019-05-01T10:38:32.445Z,60.30
2019-05-01T10:40:56.905Z,57.88
2019-05-01T10:43:21.459Z,57.82
2019-05-01T10:45:45.977Z,59.53
2019-05-01T10:48:10.584Z,59.20
2019-05-01T10:50:35.271Z,57.68
2019-05-01T10:52:59.744Z,57.83
2019-05-01T10:55:24.285Z,58.24
2019-05-01T10:57:48.774Z,58.42
2019-05-01T11:00:14.096Z,58.21
2019-05-01T11:02:38.625Z,58.36
2019-05-01T11:05:03.179Z,57.25
2019-05-01T11:07:29.235Z,57.78
2019-05-01T11:09:53.774Z,57.08
2019-05-01T11:12:18.314Z,58.41
2019-05-01T11:14:42.775Z,56.67
2019-05-01T11:17:07.454Z,55.89
2019-05-01T11:19:31.977Z,55.77
2019-05-01T11:21:56.441Z,55.88
2019-05-01T11:24:20.967Z,55.52
2019-05-01T11:26:45.549Z,57.00
2019-05-01T11:29:10.161Z,56.22
2019-05-01T11:31:54.495Z,54.76
2019-05-01T11:34:32.880Z,55.86
2019-05-01T11:37:10.936Z,55.05
2019-05-01T11:39:40.839Z,54.04
2019-05-01T11:42:16.057Z,53.69
2019-05-01T11:44:40.745Z,53.10
2019-05-01T11:47:05.350Z,51.78
2019-05-01T11:49:29.810Z,52.39
2019-05-01T11:51:54.410Z,53.14
2019-05-01T11:54:18.928Z,54.56
2019-05-01T11:56:43.455Z,52.45
2019-05-01T11:59:07.935Z,52.45
2019-05-01T12:01:32.507Z,51.66
2019-05-01T12:03:56.934Z,52.69
2019-05-01T12:06:22.960Z,53.64
2019-05-01T12:08:47.762Z,53.14
2019-05-01T12:11:13.444Z,52.52
2019-05-01T12:13:43.975Z,53.02
2019-05-01T12:16:15.074Z,53.38
2019-05-01T12:18:39.567Z,52.60
2019-05-01T12:21:04.114Z,53.12
2019-05-01T12:23:28.674Z,52.60
2019-05-01T12:25:53.210Z,51.99
2019-05-01T12:28:17.764Z,51.90
2019-05-01T12:30:42.251Z,51.42
2019-05-01T12:33:06.728Z,51.63
2019-05-01T12:35:31.347Z,50.22
2019-05-01T12:37:57.524Z,50.49
2019-05-01T12:40:23.275Z,50.22
2019-05-01T12:42:47.991Z,50.32
2019-05-01T12:45:15.175Z,52.02
2019-05-01T12:47:41.532Z,50.05
2019-05-01T12:50:08.492Z,49.78
2019-05-01T12:52:46.648Z,49.31
2019-05-01T12:55:31.028Z,49.63
2019-05-01T12:57:55.585Z,48.20
2019-05-01T13:00:23.193Z,50.66
2019-05-01T13:02:47.743Z,49.73
2019-05-01T13:05:12.361Z,47.95
2019-05-01T13:07:37.528Z,47.75
2019-05-01T13:10:02.141Z,47.99
2019-05-01T13:12:28.240Z,48.49
2019-05-01T13:14:52.815Z,48.48
2019-05-01T13:17:17.391Z,48.05
2019-05-01T13:19:41.868Z,47.49
2019-05-01T13:22:06.489Z,47.88
2019-05-01T13:24:30.989Z,49.86
2019-05-01T13:27:03.363Z,50.45
2019-05-01T13:29:29.493Z,49.22
2019-05-01T13:31:55.753Z,48.03
2019-05-01T13:34:20.240Z,48.61
2019-05-01T13:36:44.776Z,47.81
2019-05-01T13:39:11.678Z,47.94
2019-05-01T13:41:36.340Z,48.27
2019-05-01T13:44:00.874Z,48.58
2019-05-01T13:46:25.344Z,47.44
2019-05-01T13:48:49.855Z,48.06
2019-05-01T13:51:14.502Z,46.75
2019-05-01T13:53:38.995Z,48.66
2019-05-01T13:56:05.653Z,47.67
2019-05-01T13:58:30.476Z,46.55
2019-05-01T14:00:54.955Z,45.88
2019-05-01T14:03:19.425Z,46.43
2019-05-01T14:05:43.897Z,46.23
2019-05-01T14:08:08.415Z,46.36
2019-05-01T14:10:32.897Z,47.08
2019-05-01T14:12:57.427Z,46.25
2019-05-01T14:15:21.892Z,47.09
2019-05-01T14:17:46.421Z,46.97
2019-05-01T14:20:31.145Z,47.86
2019-05-01T14:22:57.259Z,47.60
2019-05-01T14:25:21.856Z,48.74
2019-05-01T14:27:46.369Z,46.39
2019-05-01T14:30:12.185Z,47.02
2019-05-01T14:32:36.666Z,47.95
2019-05-01T14:35:01.222Z,47.52
2019-05-01T14:37:29.846Z,46.40
2019-05-01T14:39:52.032Z,46.09
2019-05-01T14:42:16.578Z,46.05
2019-05-01T14:44:41.107Z,44.41
2019-05-01T14:47:05.566Z,45.29
2019-05-01T14:49:30.028Z,45.53
2019-05-01T14:51:54.569Z,46.23
2019-05-01T14:54:19.122Z,46.13
2019-05-01T14:56:43.588Z,45.16
2019-05-01T14:59:08.206Z,45.35
2019-05-01T15:01:32.682Z,46.12
2019-05-01T15:03:57.154Z,46.03
2019-05-01T15:06:21.620Z,45.50
2019-05-01T15:08:46.165Z,46.01
2019-05-01T15:11:10.769Z,45.92
2019-05-01T15:13:42.901Z,45.90
2019-05-01T15:16:27.115Z,46.45
2019-05-01T15:18:56.227Z,45.58
2019-05-01T15:21:20.705Z,45.84
2019-05-01T15:23:53.339Z,46.06
2019-05-01T15:26:11.401Z,45.10
2019-05-01T15:28:35.867Z,44.78
2019-05-01T15:31:00.385Z,45.23
2019-05-01T15:33:24.841Z,45.83
2019-05-01T15:35:49.350Z,46.30
2019-05-01T15:38:13.887Z,45.40
2019-05-01T15:40:56.296Z,45.74
2019-05-01T15:43:37.792Z,45.29
2019-05-01T15:46:02.341Z,44.38
2019-05-01T15:48:26.908Z,44.81
2019-05-01T15:50:51.511Z,44.61
2019-05-01T15:53:15.972Z,45.58
2019-05-01T15:55:40.452Z,46.37
2019-05-01T15:58:05.159Z,45.59
2019-05-01T16:00:29.702Z,45.59
2019-05-01T16:02:54.185Z,45.64
2019-05-01T16:05:18.779Z,44.55
2019-05-01T16:07:43.237Z,45.30
2019-05-01T16:10:10.277Z,45.57
2019-05-01T16:12:48.640Z,45.37
2019-05-01T16:15:17.869Z,46.37
2019-05-01T16:17:42.412Z,46.59
2019-05-01T16:20:07.917Z,47.52
2019-05-01T16:22:32.392Z,47.19
2019-05-01T16:24:56.931Z,46.94
2019-05-01T16:27:21.459Z,46.90
2019-05-01T16:29:45.919Z,47.36
2019-05-01T16:32:10.581Z,48.73
2019-05-01T16:34:35.118Z,48.67
2019-05-01T16:36:59.647Z,49.01
2019-05-01T16:39:28.578Z,48.73
2019-05-01T16:41:53.101Z,49.56
2019-05-01T16:44:17.614Z,49.04
2019-05-01T16:46:42.068Z,49.50
2019-05-01T16:49:06.671Z,49.42
2019-05-01T16:51:31.221Z,48.44
2019-05-01T16:53:55.680Z,47.66
2019-05-01T16:56:20.445Z,48.37
2019-05-01T16:58:44.904Z,47.58
2019-05-01T17:01:11.006Z,48.35
2019-05-01T17:03:46.452Z,48.22
2019-05-01T17:06:21.528Z,49.02
2019-05-01T17:09:03.729Z,49.27
2019-05-01T17:11:30.301Z,49.85
2019-05-01T17:13:54.898Z,49.03
2019-05-01T17:16:19.464Z,49.42
2019-05-01T17:18:43.952Z,49.09
2019-05-01T17:21:08.547Z,50.37
2019-05-01T17:23:33.030Z,51.64
2019-05-01T17:25:58.417Z,52.33
2019-05-01T17:28:22.976Z,50.88
2019-05-01T17:30:49.666Z,51.82
2019-05-01T17:33:19.842Z,51.05
2019-05-01T17:35:41.766Z,50.75
2019-05-01T17:38:07.033Z,51.29
2019-05-01T17:40:31.493Z,52.33
2019-05-01T17:42:55.979Z,52.59
2019-05-01T17:45:20.517Z,52.79
2019-05-01T17:47:45.048Z,53.12
2019-05-01T17:50:09.731Z,52.56
2019-05-01T17:52:34.197Z,53.68
2019-05-01T17:55:01.311Z,53.96
2019-05-01T17:57:24.893Z,54.03
2019-05-01T17:59:51.065Z,54.07
2019-05-01T18:02:20.265Z,52.39
2019-05-01T18:04:49.056Z,53.78
2019-05-01T18:07:13.685Z,55.16
2019-05-01T18:09:38.318Z,55.21
2019-05-01T18:12:02.857Z,54.46
2019-05-01T18:14:27.335Z,54.80
2019-05-01T18:16:51.941Z,53.37
2019-05-01T18:19:16.624Z,54.59
2019-05-01T18:21:46.714Z,54.43
2019-05-01T18:24:10.711Z,54.75
2019-05-01T18:26:48.821Z,54.80
2019-05-01T18:29:14.925Z,53.18
2019-05-01T18:31:39.521Z,52.24
2019-05-01T18:34:04.590Z,52.05
2019-05-01T18:36:30.904Z,52.20
2019-05-01T18:38:59.884Z,53.41
2019-05-01T18:41:26.026Z,52.76
2019-05-01T18:43:50.652Z,53.32
2019-05-01T18:46:16.982Z,53.80
2019-05-01T18:48:41.689Z,52.94
2019-05-01T18:51:06.286Z,52.46
2019-05-01T18:53:30.782Z,52.64
2019-05-01T18:55:55.420Z,54.59
2019-05-01T18:58:20.015Z,53.59
2019-05-01T19:00:44.659Z,52.90
2019-05-01T19:03:09.391Z,52.25
2019-05-01T19:05:34.111Z,52.34
2019-05-01T19:07:58.659Z,53.46
2019-05-01T19:10:23.131Z,52.95
2019-05-01T19:12:47.897Z,52.79
2019-05-01T19:15:12.501Z,54.79
2019-05-01T19:17:36.978Z,53.78
2019-05-01T19:20:01.471Z,53.24
2019-05-01T19:22:26.102Z,53.45
2019-05-01T19:24:50.591Z,53.81
2019-05-01T19:27:19.008Z,53.42
2019-05-01T19:29:41.343Z,53.28
2019-05-01T19:32:06.447Z,55.89
2019-05-01T19:34:35.490Z,55.73
2019-05-01T19:37:00.489Z,55.80
2019-05-01T19:39:24.995Z,54.26
2019-05-01T19:41:51.110Z,54.26
2019-05-01T19:44:18.703Z,54.44
2019-05-01T19:46:42.092Z,56.02
2019-05-01T19:49:06.652Z,56.34
2019-05-01T19:51:31.645Z,57.11
2019-05-01T19:53:56.293Z,55.41
2019-05-01T19:56:21.556Z,54.73
2019-05-01T19:58:47.287Z,54.94
2019-05-01T20:01:11.913Z,56.10
2019-05-01T20:03:38.437Z,57.36
2019-05-01T20:06:05.485Z,55.35
2019-05-01T20:08:29.146Z,55.68
2019-05-01T20:10:54.016Z,55.63
2019-05-01T20:13:18.556Z,58.83
2019-05-01T20:15:43.108Z,58.48
2019-05-01T20:18:07.650Z,59.34
2019-05-01T20:20:32.247Z,57.96
2019-05-01T20:22:56.752Z,59.73
2019-05-01T20:25:21.417Z,61.58
2019-05-01T20:27:52.130Z,60.14
2019-05-01T20:30:12.243Z,61.55
2019-05-01T20:32:36.712Z,61.37
2019-05-01T20:35:01.211Z,59.94
2019-05-01T20:37:25.691Z,62.01
2019-05-01T20:39:50.169Z,61.43
2019-05-01T20:42:14.764Z,62.26
2019-05-01T20:44:39.307Z,61.67
2019-05-01T20:47:04.050Z,62.00
2019-05-01T20:49:28.479Z,62.85
2019-05-01T20:51:53.074Z,63.30
2019-05-01T20:54:17.606Z,64.33
2019-05-01T20:56:52.909Z,63.17
2019-05-01T20:59:17.507Z,63.41
2019-05-01T21:01:42.139Z,62.78
2019-05-01T21:04:14.227Z,64.69
2019-05-01T21:06:43.843Z,64.69
2019-05-01T21:09:15.980Z,64.00
2019-05-01T21:11:47.106Z,64.95
2019-05-01T21:14:19.712Z,64.33
2019-05-01T21:16:38.001Z,65.39
2019-05-01T21:19:00.849Z,65.88
2019-05-01T21:21:25.318Z,66.39
2019-05-01T21:23:53.340Z,65.45
2019-05-01T21:26:15.952Z,66.58
2019-05-01T21:28:42.187Z,65.98
2019-05-01T21:31:06.657Z,67.40
2019-05-01T21:33:31.125Z,65.67
2019-05-01T21:35:59.531Z,66.92
2019-05-01T21:38:21.769Z,67.59
2019-05-01T21:40:46.815Z,67.08
2019-05-01T21:43:13.457Z,66.69
2019-05-01T21:45:37.681Z,66.00
2019-05-01T21:48:03.125Z,66.77
2019-05-01T21:50:27.783Z,67.66
2019-05-01T21:52:53.776Z,67.01
2019-05-01T21:55:18.425Z,67.00
2019-05-01T21:57:44.899Z,66.63
2019-05-01T22:00:10.302Z,66.73
2019-05-01T22:02:34.845Z,66.46
2019-05-01T22:05:03.771Z,65.90
2019-05-01T22:07:27.853Z,66.23
2019-05-01T22:09:51.844Z,66.38
2019-05-01T22:12:16.466Z,66.66
2019-05-01T22:14:55.334Z,67.53
2019-05-01T22:17:21.601Z,64.98
2019-05-01T22:19:46.211Z,67.91
2019-05-01T22:22:15.159Z,66.87
2019-05-01T22:24:50.320Z,65.14
2019-05-01T22:27:19.248Z,65.47
2019-05-01T22:29:45.503Z,66.09
2019-05-01T22:32:11.641Z,67.42
2019-05-01T22:34:37.885Z,66.81
2019-05-01T22:37:02.348Z,65.50
2019-05-01T22:39:28.981Z,67.46
2019-05-01T22:41:55.145Z,69.10
2019-05-01T22:44:19.764Z,68.97
2019-05-01T22:46:44.335Z,70.24
2019-05-01T22:49:08.825Z,70.83
2019-05-01T22:51:33.363Z,70.71
2019-05-01T22:53:57.836Z,71.00
2019-05-01T22:56:22.639Z,71.04
2019-05-01T22:58:47.124Z,71.49
2019-05-01T23:01:13.271Z,71.67
2019-05-01T23:03:41.155Z,72.05
2019-05-01T23:06:07.823Z,71.34
2019-05-01T23:08:32.412Z,70.93
2019-05-01T23:10:57.329Z,71.30
2019-05-01T23:13:21.906Z,70.31
2019-05-01T23:15:46.440Z,71.37
2019-05-01T23:18:15.393Z,71.53
2019-05-01T23:20:39.092Z,71.49
2019-05-01T23:23:03.785Z,70.93
2019-05-01T23:25:28.265Z,70.76
2019-05-01T23:27:52.733Z,70.99
2019-05-01T23:30:18.930Z,70.84
2019-05-01T23:32:44.532Z,70.86
2019-05-01T23:35:09.648Z,71.52
2019-05-01T23:37:34.514Z,71.83
2019-05-01T23:39:59.016Z,70.68
2019-05-01T23:42:23.545Z,71.25
2019-05-01T23:44:48.131Z,71.45
2019-05-01T23:47:12.605Z,71.87
2019-05-01T23:49:37.069Z,70.52
2019-05-01T23:52:03.476Z,70.50
2019-05-01T23:54:27.771Z,70.11
2019-05-01T23:56:52.306Z,69.78
2019-05-01T23:59:16.776Z,69.68
